createdAt,value
2023-06-17T00:00:53.575Z,14.63
2023-06-17T00:03:20.411Z,13.80
2023-06-17T00:05:52.743Z,13.52
2023-06-17T00:08:21.397Z,13.68
2023-06-17T00:10:48.349Z,14.40
2023-06-17T00:13:21.040Z,12.57
2023-06-17T00:15:51.984Z,13.20
2023-06-17T00:18:21.043Z,12.95
2023-06-17T00:20:48.250Z,13.02
2023-06-17T00:23:14.894Z,12.45
2023-06-17T00:25:41.453Z,12.95
2023-06-17T00:28:08.188Z,13.32
2023-06-17T00:30:34.824Z,11.55
2023-06-17T00:33:01.651Z,11.45
2023-06-17T00:35:28.260Z,12.13
2023-06-17T00:37:54.939Z,11.75
2023-06-17T00:40:21.840Z,12.45
2023-06-17T00:42:48.742Z,12.55
2023-06-17T00:45:15.357Z,12.27
2023-06-17T00:47:42.146Z,13.43
2023-06-17T00:50:09.942Z,13.07
2023-06-17T00:52:42.604Z,13.63
2023-06-17T00:55:10.162Z,13.95
2023-06-17T00:57:37.016Z,13.93
2023-06-17T01:00:06.674Z,14.70
2023-06-17T01:02:33.393Z,15.23
2023-06-17T01:05:02.416Z,15.18
2023-06-17T01:07:41.219Z,15.40
2023-06-17T01:10:12.477Z,14.68
2023-06-17T01:12:39.560Z,14.43
2023-06-17T01:15:06.477Z,14.82
2023-06-17T01:17:33.196Z,15.50
2023-06-17T01:20:00.194Z,14.75
2023-06-17T01:22:27.727Z,14.02
2023-06-17T01:24:57.457Z,14.98
2023-06-17T01:27:24.550Z,13.85
2023-06-17T01:29:51.761Z,13.50
2023-06-17T01:32:18.459Z,14.88
2023-06-17T01:34:45.071Z,13.43
2023-06-17T01:37:15.280Z,12.65
2023-06-17T01:39:43.949Z,13.48
2023-06-17T01:42:20.097Z,13.77
2023-06-17T01:44:48.139Z,13.93
2023-06-17T01:47:15.051Z,14.60
2023-06-17T01:49:41.718Z,14.02
2023-06-17T01:52:10.617Z,14.60
2023-06-17T01:54:37.376Z,14.40
2023-06-17T01:57:04.190Z,14.02
2023-06-17T01:59:31.624Z,15.23
2023-06-17T02:01:58.498Z,14.02
2023-06-17T02:04:25.381Z,15.23
2023-06-17T02:06:52.925Z,14.95
2023-06-17T02:09:20.277Z,15.43
2023-06-17T02:11:46.934Z,14.40
2023-06-17T02:14:13.597Z,14.98
2023-06-17T02:16:45.528Z,14.65
2023-06-17T02:19:13.579Z,14.73
2023-06-17T02:21:40.404Z,15.60
2023-06-17T02:24:07.304Z,14.10
2023-06-17T02:26:34.002Z,15.60
2023-06-17T02:29:00.833Z,15.23
2023-06-17T02:31:28.712Z,16.63
2023-06-17T02:33:55.774Z,16.92
2023-06-17T02:36:22.597Z,14.70
2023-06-17T02:38:53.984Z,15.60
2023-06-17T02:41:21.130Z,16.55
2023-06-17T02:43:47.775Z,14.98
2023-06-17T02:46:14.420Z,15.85
2023-06-17T02:48:41.087Z,16.08
2023-06-17T02:51:08.933Z,15.90
2023-06-17T02:53:36.117Z,15.43
2023-06-17T02:56:03.087Z,15.45
2023-06-17T02:58:30.052Z,16.15
2023-06-17T03:00:56.846Z,16.85
2023-06-17T03:03:35.415Z,15.43
2023-06-17T03:06:03.092Z,16.45
2023-06-17T03:08:39.793Z,17.05
2023-06-17T03:11:06.625Z,18.02
2023-06-17T03:13:33.391Z,18.20
2023-06-17T03:16:02.399Z,18.42
2023-06-17T03:18:29.506Z,17.67
2023-06-17T03:20:56.166Z,18.33
2023-06-17T03:23:25.727Z,17.45
2023-06-17T03:25:53.140Z,18.20
2023-06-17T03:28:19.986Z,17.65
2023-06-17T03:30:46.704Z,18.67
2023-06-17T03:33:13.780Z,17.13
2023-06-17T03:35:40.518Z,17.80
2023-06-17T03:38:09.077Z,17.67
2023-06-17T03:40:35.718Z,18.23
2023-06-17T03:43:02.519Z,16.33
2023-06-17T03:45:32.242Z,18.13
2023-06-17T03:47:59.311Z,17.13
2023-06-17T03:50:26.377Z,17.30
2023-06-17T03:52:53.111Z,16.52
2023-06-17T03:55:19.746Z,17.08
2023-06-17T03:57:46.825Z,15.80
2023-06-17T04:00:15.000Z,16.02
2023-06-17T04:02:46.358Z,15.55
2023-06-17T04:05:13.529Z,15.27
2023-06-17T04:07:40.698Z,16.30
2023-06-17T04:10:08.456Z,15.40
2023-06-17T04:12:38.916Z,16.77
2023-06-17T04:15:09.348Z,14.38
2023-06-17T04:17:37.341Z,15.27
2023-06-17T04:20:11.880Z,14.98
2023-06-17T04:22:40.339Z,16.45
2023-06-17T04:25:07.772Z,15.85
2023-06-17T04:27:34.437Z,16.42
2023-06-17T04:30:02.425Z,15.00
2023-06-17T04:32:29.763Z,15.25
2023-06-17T04:34:56.640Z,16.20
2023-06-17T04:37:23.400Z,15.00
2023-06-17T04:39:50.178Z,14.85
2023-06-17T04:42:19.503Z,15.23
2023-06-17T04:44:50.181Z,15.07
2023-06-17T04:47:17.614Z,15.30
2023-06-17T04:49:45.519Z,14.77
2023-06-17T04:52:12.427Z,14.13
2023-06-17T04:54:39.722Z,14.75
2023-06-17T04:57:06.814Z,14.20
2023-06-17T04:59:33.576Z,13.80
2023-06-17T05:02:00.180Z,13.88
2023-06-17T05:04:26.887Z,13.38
2023-06-17T05:06:53.689Z,12.13
2023-06-17T05:09:20.332Z,13.52
2023-06-17T05:11:47.123Z,13.27
2023-06-17T05:14:13.826Z,14.15
2023-06-17T05:16:40.553Z,13.52
2023-06-17T05:19:07.343Z,14.18
2023-06-17T05:21:34.089Z,16.83
2023-06-17T05:24:03.393Z,16.13
2023-06-17T05:26:30.575Z,16.00
2023-06-17T05:28:58.268Z,15.70
2023-06-17T05:31:24.938Z,15.10
2023-06-17T05:33:51.598Z,14.85
2023-06-17T05:36:18.228Z,14.73
2023-06-17T05:38:44.810Z,15.85
2023-06-17T05:41:11.565Z,16.00
2023-06-17T05:43:38.171Z,15.00
2023-06-17T05:46:04.825Z,15.73
2023-06-17T05:48:31.606Z,14.20
2023-06-17T05:50:58.202Z,14.73
2023-06-17T05:53:24.918Z,15.13
2023-06-17T05:55:51.518Z,15.43
2023-06-17T05:58:18.290Z,15.50
2023-06-17T06:00:45.854Z,16.17
2023-06-17T06:03:12.534Z,16.40
2023-06-17T06:05:39.138Z,16.33
2023-06-17T06:08:06.187Z,17.98
2023-06-17T06:10:33.856Z,16.63
2023-06-17T06:13:00.727Z,16.15
2023-06-17T06:15:30.390Z,16.50
2023-06-17T06:17:57.740Z,16.42
2023-06-17T06:20:24.641Z,15.13
2023-06-17T06:22:51.333Z,14.25
2023-06-17T06:25:17.886Z,13.98
2023-06-17T06:27:44.539Z,14.18
2023-06-17T06:30:11.575Z,14.73
2023-06-17T06:32:38.405Z,12.18
2023-06-17T06:35:05.453Z,14.02
2023-06-17T06:37:32.421Z,12.30
2023-06-17T06:39:59.056Z,11.27
2023-06-17T06:42:25.809Z,10.65
2023-06-17T06:44:52.459Z,10.55
2023-06-17T06:47:19.295Z,8.85
2023-06-17T06:49:45.990Z,8.57
2023-06-17T06:52:12.671Z,8.65
2023-06-17T06:54:39.313Z,8.68
2023-06-17T06:57:07.245Z,10.07
2023-06-17T06:59:33.958Z,10.30
2023-06-17T07:02:00.833Z,9.23
2023-06-17T07:04:28.639Z,9.82
2023-06-17T07:06:55.559Z,9.80
2023-06-17T07:09:22.476Z,10.82
2023-06-17T07:11:49.141Z,10.32
2023-06-17T07:14:15.829Z,10.43
2023-06-17T07:16:43.866Z,10.20
2023-06-17T07:19:10.650Z,11.23
2023-06-17T07:21:37.197Z,10.70
2023-06-17T07:24:04.022Z,11.50
2023-06-17T07:26:30.862Z,11.35
2023-06-17T07:28:57.572Z,10.80
2023-06-17T07:31:24.332Z,11.88
2023-06-17T07:33:55.833Z,12.25
2023-06-17T07:36:26.125Z,11.43
2023-06-17T07:38:53.011Z,11.35
2023-06-17T07:41:20.031Z,11.65
2023-06-17T07:43:46.715Z,11.55
2023-06-17T07:46:13.523Z,12.02
2023-06-17T07:48:40.233Z,11.55
2023-06-17T07:51:06.815Z,11.57
2023-06-17T07:53:33.453Z,10.52
2023-06-17T07:56:00.320Z,12.25
2023-06-17T07:58:26.962Z,11.75
2023-06-17T08:00:53.556Z,11.82
2023-06-17T08:03:20.349Z,12.55
2023-06-17T08:05:46.977Z,11.98
2023-06-17T08:08:13.609Z,11.50
2023-06-17T08:10:40.179Z,11.27
2023-06-17T08:13:08.529Z,12.07
2023-06-17T08:15:36.724Z,11.40
2023-06-17T08:18:03.486Z,11.52
2023-06-17T08:20:30.340Z,11.85
2023-06-17T08:22:57.892Z,12.70
2023-06-17T08:25:24.790Z,11.48
2023-06-17T08:27:52.140Z,11.38
2023-06-17T08:30:19.288Z,10.65
2023-06-17T08:32:46.712Z,10.32
2023-06-17T08:35:13.416Z,9.93
2023-06-17T08:37:40.255Z,10.40
2023-06-17T08:40:07.263Z,9.90
2023-06-17T08:42:33.995Z,9.07
2023-06-17T08:45:01.596Z,9.60
2023-06-17T08:47:28.901Z,9.70
2023-06-17T08:49:59.374Z,10.27
2023-06-17T08:52:27.414Z,9.50
2023-06-17T08:54:54.716Z,9.20
2023-06-17T08:57:21.633Z,8.93
2023-06-17T08:59:50.180Z,8.55
2023-06-17T09:02:18.851Z,8.90
2023-06-17T09:04:50.727Z,9.50
2023-06-17T09:07:17.454Z,9.18
2023-06-17T09:09:47.765Z,10.00
2023-06-17T09:12:14.653Z,9.60
2023-06-17T09:14:44.254Z,9.70
2023-06-17T09:17:26.644Z,9.43
2023-06-17T09:19:54.908Z,8.68
2023-06-17T09:22:21.743Z,8.77
2023-06-17T09:24:48.668Z,8.38
2023-06-17T09:27:22.019Z,9.32
2023-06-17T09:29:49.603Z,8.70
2023-06-17T09:32:16.813Z,7.97
2023-06-17T09:34:48.844Z,7.88
2023-06-17T09:37:16.579Z,8.45
2023-06-17T09:39:45.402Z,7.65
2023-06-17T09:42:13.495Z,8.05
2023-06-17T09:44:41.137Z,7.97
2023-06-17T09:47:11.536Z,7.60
2023-06-17T09:49:39.425Z,7.80
2023-06-17T09:52:10.490Z,6.70
2023-06-17T09:54:39.106Z,6.80
2023-06-17T09:57:08.893Z,7.72
2023-06-17T09:59:37.905Z,9.60
2023-06-17T10:02:05.052Z,8.65
2023-06-17T10:04:32.678Z,6.35
2023-06-17T10:07:01.296Z,7.40
2023-06-17T10:09:29.473Z,8.32
2023-06-17T10:11:57.836Z,7.70
2023-06-17T10:14:32.995Z,7.10
2023-06-17T10:17:01.686Z,7.25
2023-06-17T10:19:30.786Z,8.77
2023-06-17T10:22:01.632Z,8.10
2023-06-17T10:24:28.638Z,9.68
2023-06-17T10:26:55.837Z,8.45
2023-06-17T10:29:22.607Z,7.70
2023-06-17T10:31:49.318Z,9.32
2023-06-17T10:34:16.903Z,7.97
2023-06-17T10:36:50.041Z,7.65
2023-06-17T10:39:21.439Z,7.78
2023-06-17T10:41:48.186Z,7.22
2023-06-17T10:44:21.075Z,6.47
2023-06-17T10:46:51.272Z,7.68
2023-06-17T10:49:19.935Z,6.93
2023-06-17T10:54:31.860Z,7.20
2023-06-17T10:56:58.856Z,6.85
2023-06-17T10:59:32.148Z,6.47
2023-06-17T11:02:03.828Z,6.15
2023-06-17T11:04:33.291Z,6.38
2023-06-17T11:07:02.268Z,7.03
2023-06-17T11:09:29.787Z,5.82
2023-06-17T11:12:01.550Z,6.05
2023-06-17T11:14:28.902Z,6.35
2023-06-17T11:16:55.569Z,6.43
2023-06-17T11:19:23.882Z,5.60
2023-06-17T11:22:02.998Z,5.45
2023-06-17T11:24:30.009Z,6.40
2023-06-17T11:26:57.160Z,5.82
2023-06-17T11:29:24.476Z,6.15
2023-06-17T11:31:51.524Z,5.35
2023-06-17T11:34:18.395Z,5.45
2023-06-17T11:36:54.389Z,5.72
2023-06-17T11:39:25.137Z,6.53
2023-06-17T11:41:52.380Z,5.95
2023-06-17T11:44:19.340Z,5.78
2023-06-17T11:46:49.908Z,6.10
2023-06-17T11:49:16.792Z,4.85
2023-06-17T11:51:50.002Z,6.00
2023-06-17T11:54:18.247Z,5.72
2023-06-17T11:56:45.411Z,4.90
2023-06-17T11:59:14.764Z,5.13
2023-06-17T12:01:45.901Z,5.28
2023-06-17T12:04:14.519Z,4.93
2023-06-17T12:06:41.701Z,5.25
2023-06-17T12:09:10.045Z,5.20
2023-06-17T12:11:44.492Z,5.65
2023-06-17T12:14:12.067Z,6.05
2023-06-17T12:16:42.203Z,5.88
2023-06-17T12:19:14.667Z,4.97
2023-06-17T12:21:41.334Z,5.40
2023-06-17T12:24:08.993Z,8.45
2023-06-17T12:26:40.757Z,5.90
2023-06-17T12:29:20.491Z,5.82
2023-06-17T12:31:52.753Z,5.00
2023-06-17T12:34:19.520Z,5.90
2023-06-17T12:36:48.736Z,4.95
2023-06-17T12:39:25.722Z,4.72
2023-06-17T12:41:55.029Z,4.88
2023-06-17T12:44:22.168Z,5.45
2023-06-17T12:46:48.984Z,4.95
2023-06-17T12:49:21.104Z,4.80
2023-06-17T12:51:48.907Z,4.57
2023-06-17T12:54:15.665Z,5.80
2023-06-17T12:56:43.554Z,5.65
2023-06-17T12:59:10.497Z,5.70
2023-06-17T13:01:37.300Z,5.03
2023-06-17T13:04:04.471Z,5.20
2023-06-17T13:06:31.329Z,4.95
2023-06-17T13:08:58.983Z,4.95
2023-06-17T13:11:25.649Z,5.57
2023-06-17T13:13:55.388Z,5.38
2023-06-17T13:16:23.784Z,5.15
2023-06-17T13:18:50.745Z,5.40
2023-06-17T13:21:19.562Z,4.93
2023-06-17T13:23:46.477Z,4.85
2023-06-17T13:26:13.193Z,4.88
2023-06-17T13:28:40.050Z,5.10
2023-06-17T13:31:13.345Z,5.45
2023-06-17T13:33:40.475Z,5.30
2023-06-17T13:36:07.410Z,4.47
2023-06-17T13:38:34.202Z,5.60
2023-06-17T13:41:01.428Z,4.93
2023-06-17T13:43:34.086Z,5.32
2023-06-17T13:46:00.762Z,5.57
2023-06-17T13:48:27.495Z,5.93
2023-06-17T13:50:54.164Z,6.28
2023-06-17T13:53:24.991Z,6.25
2023-06-17T13:55:53.544Z,6.10
2023-06-17T13:58:22.337Z,6.13
2023-06-17T14:00:49.021Z,5.85
2023-06-17T14:03:18.286Z,5.78
2023-06-17T14:05:46.138Z,6.05
2023-06-17T14:08:12.892Z,5.15
2023-06-17T14:10:41.991Z,5.32
2023-06-17T14:13:08.716Z,5.10
2023-06-17T14:15:35.398Z,4.68
2023-06-17T14:18:02.411Z,4.20
2023-06-17T14:20:29.123Z,4.10
2023-06-17T14:22:58.085Z,4.18
2023-06-17T14:25:25.667Z,3.88
2023-06-17T14:27:53.328Z,3.85
2023-06-17T14:30:20.310Z,4.10
2023-06-17T14:32:48.262Z,3.60
2023-06-17T14:35:17.027Z,3.13
2023-06-17T14:37:46.772Z,3.60
2023-06-17T14:40:14.261Z,3.50
2023-06-17T14:42:41.792Z,2.90
2023-06-17T14:45:09.991Z,3.13
2023-06-17T14:47:41.224Z,2.67
2023-06-17T14:50:09.313Z,2.63
2023-06-17T14:52:36.262Z,3.05
2023-06-17T14:55:04.359Z,3.00
2023-06-17T14:57:33.689Z,3.20
2023-06-17T15:00:01.113Z,2.97
2023-06-17T15:02:40.521Z,3.30
2023-06-17T15:05:07.807Z,2.97
2023-06-17T15:07:37.802Z,3.55
2023-06-17T15:10:05.228Z,3.75
2023-06-17T15:12:38.439Z,3.85
2023-06-17T15:15:06.328Z,3.80
2023-06-17T15:17:33.310Z,3.85
2023-06-17T15:20:00.237Z,3.70
2023-06-17T15:22:27.939Z,3.13
2023-06-17T15:24:54.830Z,3.63
2023-06-17T15:27:27.061Z,3.53
2023-06-17T15:29:55.662Z,3.53
2023-06-17T15:32:23.356Z,3.83
2023-06-17T15:34:51.425Z,3.90
2023-06-17T15:37:18.342Z,4.03
2023-06-17T15:39:45.344Z,4.40
2023-06-17T15:42:13.428Z,4.60
2023-06-17T15:44:40.223Z,4.63
2023-06-17T15:47:07.287Z,4.03
2023-06-17T15:49:35.925Z,4.72
2023-06-17T15:52:04.201Z,4.82
2023-06-17T15:54:30.983Z,4.80
2023-06-17T15:57:02.375Z,4.75
2023-06-17T15:59:30.169Z,5.20
2023-06-17T16:01:57.438Z,5.40
2023-06-17T16:04:34.911Z,5.47
2023-06-17T16:07:02.909Z,5.32
2023-06-17T16:09:34.415Z,5.18
2023-06-17T16:12:01.997Z,4.68
2023-06-17T16:14:29.425Z,4.53
2023-06-17T16:17:05.193Z,4.80
2023-06-17T16:19:34.342Z,5.15
2023-06-17T16:22:04.539Z,4.25
2023-06-17T16:24:31.690Z,4.45
2023-06-17T16:27:07.405Z,5.00
2023-06-17T16:29:34.523Z,4.90
2023-06-17T16:32:01.486Z,5.50
2023-06-17T16:34:29.196Z,4.53
2023-06-17T16:36:56.236Z,5.13
2023-06-17T16:39:26.573Z,5.00
2023-06-17T16:41:53.607Z,4.68
2023-06-17T16:44:24.085Z,5.10
2023-06-17T16:46:51.060Z,5.03
2023-06-17T16:49:18.245Z,5.25
2023-06-17T16:51:45.763Z,5.63
2023-06-17T16:54:12.641Z,5.18
2023-06-17T16:56:39.414Z,5.63
2023-06-17T16:59:06.979Z,5.03
2023-06-17T17:01:43.804Z,5.20
2023-06-17T17:04:12.229Z,5.72
2023-06-17T17:06:39.717Z,5.25
2023-06-17T17:09:06.912Z,5.32
2023-06-17T17:11:43.048Z,5.60
2023-06-17T17:14:11.650Z,5.25
2023-06-17T17:16:42.918Z,5.20
2023-06-17T17:19:09.820Z,4.95
2023-06-17T17:21:37.641Z,5.35
2023-06-17T17:24:06.358Z,5.38
2023-06-17T17:26:34.753Z,5.30
2023-06-17T17:29:01.942Z,5.35
2023-06-17T17:31:28.768Z,5.07
2023-06-17T17:33:56.487Z,4.90
2023-06-17T17:36:24.771Z,5.15
2023-06-17T17:38:51.391Z,5.20
2023-06-17T17:41:18.354Z,5.35
2023-06-17T17:43:45.043Z,5.25
2023-06-17T17:46:12.516Z,5.10
2023-06-17T17:48:39.486Z,5.10
2023-06-17T17:51:06.766Z,5.20
2023-06-17T17:53:39.382Z,4.60
2023-06-17T17:56:07.686Z,5.22
2023-06-17T17:58:34.376Z,4.97
2023-06-17T18:01:03.132Z,4.80
2023-06-17T18:03:30.384Z,5.00
2023-06-17T18:05:57.399Z,4.93
2023-06-17T18:08:25.852Z,4.97
2023-06-17T18:10:54.149Z,5.30
2023-06-17T18:13:22.152Z,5.13
2023-06-17T18:15:48.982Z,5.35
2023-06-17T18:18:16.766Z,5.13
2023-06-17T18:20:43.512Z,4.63
2023-06-17T18:23:13.029Z,5.18
2023-06-17T18:25:41.385Z,4.85
2023-06-17T18:28:09.681Z,4.85
2023-06-17T18:30:38.252Z,5.35
2023-06-17T18:33:05.023Z,6.15
2023-06-17T18:35:32.048Z,6.20
2023-06-17T18:37:58.934Z,6.30
2023-06-17T18:40:25.973Z,5.55
2023-06-17T18:42:52.948Z,5.68
2023-06-17T18:45:21.580Z,5.88
2023-06-17T18:47:48.387Z,5.50
2023-06-17T18:50:20.247Z,6.25
2023-06-17T18:52:47.352Z,5.90
2023-06-17T18:55:14.283Z,5.88
2023-06-17T18:57:41.253Z,6.20
2023-06-17T19:00:08.399Z,5.32
2023-06-17T19:02:37.198Z,5.60
2023-06-17T19:05:07.293Z,5.47
2023-06-17T19:07:34.208Z,5.28
2023-06-17T19:10:01.990Z,5.10
2023-06-17T19:12:31.545Z,5.63
2023-06-17T19:14:58.844Z,6.15
2023-06-17T19:17:26.775Z,5.80
2023-06-17T19:19:53.801Z,5.70
2023-06-17T19:22:20.665Z,6.20
2023-06-17T19:24:47.607Z,5.80
2023-06-17T19:27:14.300Z,5.30
2023-06-17T19:29:41.539Z,5.55
2023-06-17T19:32:08.387Z,5.82
2023-06-17T19:34:36.605Z,5.80
2023-06-17T19:37:03.940Z,5.95
2023-06-17T19:39:30.922Z,6.07
2023-06-17T19:41:57.686Z,6.45
2023-06-17T19:44:24.640Z,5.88
2023-06-17T19:46:51.473Z,6.25
2023-06-17T19:49:20.686Z,5.93
2023-06-17T19:51:48.853Z,6.10
2023-06-17T19:54:16.596Z,6.18
2023-06-17T19:56:43.823Z,5.80
2023-06-17T19:59:10.669Z,5.57
2023-06-17T20:01:37.701Z,5.72
2023-06-17T20:04:04.707Z,5.85
2023-06-17T20:06:31.516Z,5.95
2023-06-17T20:08:58.239Z,6.10
2023-06-17T20:11:26.918Z,6.63
2023-06-17T20:13:53.598Z,6.03
2023-06-17T20:16:20.405Z,5.88
2023-06-17T20:18:47.114Z,5.85
2023-06-17T20:21:15.487Z,5.93
2023-06-17T20:23:42.173Z,5.63
2023-06-17T20:26:09.200Z,6.20
2023-06-17T20:28:36.682Z,6.03
2023-06-17T20:31:04.212Z,5.68
2023-06-17T20:33:31.146Z,6.20
2023-06-17T20:35:59.493Z,6.28
2023-06-17T20:38:26.323Z,6.18
2023-06-17T20:40:53.007Z,5.90
2023-06-17T20:43:19.935Z,5.40
2023-06-17T20:45:50.065Z,6.47
2023-06-17T20:48:19.677Z,6.13
2023-06-17T20:50:46.558Z,6.13
2023-06-17T20:53:13.410Z,6.53
2023-06-17T20:55:40.385Z,5.82
2023-06-17T20:58:06.985Z,6.10
2023-06-17T21:00:33.675Z,5.88
2023-06-17T21:03:01.148Z,6.00
2023-06-17T21:05:27.797Z,6.22
2023-06-17T21:07:56.633Z,6.05
2023-06-17T21:10:23.777Z,5.65
2023-06-17T21:12:54.432Z,6.00
2023-06-17T21:15:21.250Z,6.20
2023-06-17T21:17:48.064Z,5.50
2023-06-17T21:20:14.907Z,5.85
2023-06-17T21:22:41.565Z,6.13
2023-06-17T21:25:08.340Z,6.28
2023-06-17T21:27:35.111Z,6.40
2023-06-17T21:30:01.914Z,6.55
2023-06-17T21:32:29.385Z,6.05
2023-06-17T21:34:56.040Z,5.53
2023-06-17T21:37:23.636Z,6.07
2023-06-17T21:39:51.678Z,5.90
2023-06-17T21:42:18.441Z,6.32
2023-06-17T21:44:45.362Z,6.70
2023-06-17T21:47:12.002Z,6.78
2023-06-17T21:49:40.514Z,6.85
2023-06-17T21:52:07.691Z,5.70
2023-06-17T21:54:34.399Z,7.47
2023-06-17T21:57:01.105Z,7.40
2023-06-17T21:59:27.769Z,6.93
2023-06-17T22:01:55.197Z,7.85
2023-06-17T22:04:21.848Z,7.22
2023-06-17T22:06:48.460Z,8.35
2023-06-17T22:09:16.696Z,7.75
2023-06-17T22:11:44.248Z,7.80
2023-06-17T22:14:11.400Z,7.70
2023-06-17T22:16:39.539Z,7.60
2023-06-17T22:19:07.245Z,8.30
2023-06-17T22:21:37.249Z,7.85
2023-06-17T22:24:04.155Z,8.52
2023-06-17T22:26:30.976Z,8.00
2023-06-17T22:28:57.687Z,7.70
2023-06-17T22:31:24.431Z,8.38
2023-06-17T22:33:51.576Z,8.57
2023-06-17T22:36:18.712Z,9.25
2023-06-17T22:38:45.471Z,8.43
2023-06-17T22:41:12.276Z,8.27
2023-06-17T22:43:39.165Z,7.85
2023-06-17T22:46:15.795Z,9.30
2023-06-17T22:48:43.177Z,8.50
2023-06-17T22:51:10.790Z,8.48
2023-06-17T22:53:40.146Z,7.82
2023-06-17T22:56:07.681Z,8.77
2023-06-17T22:58:34.685Z,8.80
2023-06-17T23:01:02.128Z,7.38
2023-06-17T23:03:29.614Z,7.88
2023-06-17T23:05:59.117Z,7.53
2023-06-17T23:08:27.188Z,7.28
2023-06-17T23:10:53.934Z,6.95
2023-06-17T23:13:20.750Z,7.78
2023-06-17T23:15:47.396Z,7.25
2023-06-17T23:18:14.995Z,7.68
2023-06-17T23:20:42.145Z,7.03
2023-06-17T23:23:09.618Z,7.55
2023-06-17T23:25:36.584Z,6.82
2023-06-17T23:28:03.300Z,6.93
2023-06-17T23:30:30.334Z,6.70
2023-06-17T23:33:03.047Z,6.97
2023-06-17T23:35:29.704Z,7.00
2023-06-17T23:37:56.704Z,6.90
2023-06-17T23:40:23.622Z,7.00
2023-06-17T23:42:50.594Z,7.05
2023-06-17T23:45:17.317Z,6.68
2023-06-17T23:47:44.186Z,6.38
2023-06-17T23:50:11.322Z,6.85
2023-06-17T23:52:38.030Z,6.38
2023-06-17T23:55:05.049Z,6.30
2023-06-17T23:57:31.638Z,6.72
2023-06-17T23:59:59.943Z,6.30
